Time;durP1;ratioP1;P1;durP2;ratioP2;P2;SDS_P1;SDS_P2;PMS_P1;PMS_P2;Temp;Humidity;BMP_temperature;BMP_pressure;BME280_temperature;BME280_humidity;BME280_pressure;Samples;Min_cycle;Max_cycle;Signal;HPM_P1;HPM_P2
2023/01/16 04:53:22;;;;;;;13.40;8.60;;;;;;;6.11;100.00;100487.60;108421;1276;550424;-64
2023/01/16 04:55:51;;;;;;;12.40;7.40;;;;;;;9.30;96.66;100468.33;107750;1278;1002108;-65
2023/01/16 04:58:16;;;;;;;11.20;7.00;;;;;;;9.83;90.40;100465.36;108599;1277;22441;-64
2023/01/16 05:00:42;;;;;;;7.70;5.50;;;;;;;10.12;86.88;100462.31;108423;1279;21982;-65
2023/01/16 05:03:08;;;;;;;10.00;5.10;;;;;;;10.27;84.57;100461.82;108486;1279;21998;-66
2023/01/16 05:05:39;;;;;;;6.90;4.90;;;;;;;10.37;82.41;100454.73;108308;1277;290352;-71
2023/01/16 05:08:16;;;;;;;7.60;4.80;;;;;;;10.52;81.51;100456.01;108808;1277;23604;-71
2023/01/16 05:10:43;;;;;;;7.60;3.90;;;;;;;10.59;80.63;100460.14;108726;1276;23044;-70
2023/01/16 05:13:09;;;;;;;7.50;4.80;;;;;;;10.59;79.49;100456.10;108615;1278;23635;-70
2023/01/16 05:15:35;;;;;;;9.60;4.90;;;;;;;10.66;79.13;100456.89;108533;1278;21969;-66
2023/01/16 05:18:01;;;;;;;8.10;4.90;;;;;;;10.72;78.62;100458.22;108525;1276;21976;-67
2023/01/16 05:20:26;;;;;;;8.60;5.00;;;;;;;10.79;78.63;100455.34;108470;1277;21979;-69
2023/01/16 05:22:52;;;;;;;7.10;4.90;;;;;;;10.77;77.96;100454.84;108537;1278;21975;-70
2023/01/16 05:25:18;;;;;;;7.90;4.00;;;;;;;10.82;77.79;100454.77;108503;1265;21977;-69
2023/01/16 05:27:49;;;;;;;5.90;4.00;;;;;;;10.85;77.55;100453.86;108500;1278;21990;-70
2023/01/16 05:30:15;;;;;;;9.00;4.50;;;;;;;10.84;76.72;100450.54;108871;1264;22001;-67
2023/01/16 05:32:42;;;;;;;7.60;4.30;;;;;;;10.86;76.38;100447.52;108731;1277;21982;-70
2023/01/16 05:35:09;;;;;;;8.30;4.40;;;;;;;10.91;76.39;100446.59;108446;1277;21982;-67
2023/01/16 05:37:34;;;;;;;5.30;4.00;;;;;;;10.97;76.34;100440.91;109301;1276;21992;-71
2023/01/16 05:40:00;;;;;;;8.50;4.60;;;;;;;10.94;75.61;100443.92;108682;1277;21976;-64
2023/01/16 05:42:26;;;;;;;8.40;4.40;;;;;;;10.95;75.50;100446.36;108750;1277;22015;-65
2023/01/16 05:44:53;;;;;;;7.30;4.70;;;;;;;10.95;74.91;100444.44;108750;1277;21979;-70
2023/01/16 05:47:19;;;;;;;7.10;4.40;;;;;;;11.02;75.32;100445.05;108701;1277;21979;-64
2023/01/16 05:49:45;;;;;;;7.10;4.50;;;;;;;11.07;75.23;100446.20;108858;1277;21985;-64
2023/01/16 05:52:10;;;;;;;8.30;3.90;;;;;;;11.08;74.81;100448.30;108742;1276;21994;-69
2023/01/16 05:54:36;;;;;;;6.50;3.80;;;;;;;11.11;74.69;100450.89;108734;1277;21972;-69
2023/01/16 05:57:02;;;;;;;7.60;4.60;;;;;;;11.04;74.27;100453.45;108777;1270;21972;-65
2023/01/16 05:59:28;;;;;;;12.70;5.70;;;;;;;11.08;74.50;100454.45;108721;1273;23106;-65
2023/01/16 06:01:53;;;;;;;18.30;10.60;;;;;;;11.10;74.47;100455.48;108681;1276;21982;-71
2023/01/16 06:04:19;;;;;;;31.20;17.20;;;;;;;11.13;74.46;100454.38;108629;1277;22740;-65
2023/01/16 06:06:46;;;;;;;24.40;14.40;;;;;;;11.19;74.54;100457.28;109574;1276;22018;-70
2023/01/16 06:09:12;;;;;;;29.70;18.50;;;;;;;11.23;74.50;100453.38;108771;1277;23436;-70
2023/01/16 06:11:40;;;;;;;28.50;16.00;;;;;;;11.17;74.22;100454.67;109063;1277;22017;-69
2023/01/16 06:14:05;;;;;;;27.80;12.50;;;;;;;11.18;74.42;100451.69;108713;1277;21979;-69
2023/01/16 06:16:31;;;;;;;17.30;10.80;;;;;;;11.24;74.21;100446.33;108681;1264;21976;-70
2023/01/16 06:18:57;;;;;;;17.50;11.40;;;;;;;11.15;74.26;100446.98;108825;1277;21974;-66
2023/01/16 06:21:23;;;;;;;16.00;10.00;;;;;;;11.14;74.36;100448.23;108723;1277;21973;-69
2023/01/16 06:23:52;;;;;;;15.30;9.40;;;;;;;11.15;74.41;100451.20;108731;1277;22045;-66
2023/01/16 06:26:19;;;;;;;14.30;8.70;;;;;;;11.15;74.31;100451.55;108673;1277;22157;-70
2023/01/16 06:28:45;;;;;;;16.00;8.80;;;;;;;11.15;74.19;100453.83;108682;1273;21987;-69
2023/01/16 06:31:11;;;;;;;11.30;7.50;;;;;;;11.12;74.47;100449.12;108847;1273;23748;-66
2023/01/16 06:33:37;;;;;;;9.10;6.20;;;;;;;11.16;74.54;100445.39;108914;1277;21981;-66
2023/01/16 06:36:03;;;;;;;8.20;5.60;;;;;;;11.18;74.16;100443.95;108766;1277;22015;-65
2023/01/16 06:38:29;;;;;;;7.30;4.70;;;;;;;11.24;73.86;100441.95;108826;1277;21991;-65
2023/01/16 06:40:55;;;;;;;13.30;8.40;;;;;;;11.26;73.83;100438.58;108881;1266;22153;-66
2023/01/16 06:43:26;;;;;;;8.30;5.50;;;;;;;11.32;74.06;100441.13;108665;1277;21974;-66
2023/01/16 06:45:52;;;;;;;13.90;9.00;;;;;;;11.36;74.06;100439.66;108768;1277;23651;-66
2023/01/16 06:48:20;;;;;;;13.00;8.80;;;;;;;11.38;74.17;100438.76;108785;1277;21999;-66
2023/01/16 06:50:46;;;;;;;10.70;6.40;;;;;;;11.40;74.28;100437.32;108851;1277;21993;-68
2023/01/16 06:53:11;;;;;;;13.50;8.40;;;;;;;11.42;73.87;100437.66;108835;1277;22217;-69
2023/01/16 06:55:38;;;;;;;13.20;8.00;;;;;;;11.46;73.93;100441.98;108672;1277;21971;-69
2023/01/16 06:58:04;;;;;;;12.10;7.30;;;;;;;11.52;73.81;100444.87;108799;1277;21976;-68
2023/01/16 07:00:30;;;;;;;10.30;6.50;;;;;;;11.55;73.81;100447.28;108859;1274;21963;-70
2023/01/16 07:02:56;;;;;;;13.80;8.20;;;;;;;11.58;73.73;100446.89;108830;1277;23062;-67
2023/01/16 13:14:42;;;;;;;7.20;4.80;;;;;;;11.52;90.48;100199.35;107622;1293;23718;-68
2023/01/16 13:17:11;;;;;;;7.00;5.00;;;;;;;12.04;84.73;100194.34;107520;1295;21990;-65
2023/01/16 13:19:38;;;;;;;6.50;4.00;;;;;;;12.13;82.19;100191.16;106634;1295;1002398;-69
2023/01/16 13:22:19;;;;;;;8.20;4.30;;;;;;;12.27;81.69;100188.41;107488;1282;22461;-65
2023/01/16 13:24:57;;;;;;;7.00;3.90;;;;;;;12.42;80.52;100188.58;107460;1292;367921;-69
2023/01/16 13:27:32;;;;;;;8.10;4.70;;;;;;;12.58;79.17;100185.39;107752;1292;21996;-65
2023/01/16 13:30:03;;;;;;;7.30;4.10;;;;;;;12.68;77.59;100183.06;107827;1279;22000;-68
2023/01/16 13:32:35;;;;;;;7.30;3.90;;;;;;;12.77;77.57;100183.20;107793;1291;22468;-69
2023/01/16 13:35:53;;;;;;;15.90;7.80;;;;;;;12.82;76.95;100181.50;107807;1291;22201;-65
2023/01/16 13:38:40;;;;;;;10.30;5.70;;;;;;;12.81;75.64;100170.05;107473;1292;22120;-66
2023/01/16 13:41:19;;;;;;;18.70;11.40;;;;;;;12.85;75.09;100163.63;107797;1292;21997;-69
2023/01/16 13:46:35;;;;;;;65.60;30.60;;;;;;;12.88;74.41;100169.54;107758;1291;22000;-68
2023/01/16 13:49:02;;;;;;;31.40;20.70;;;;;;;12.85;74.74;100166.79;107701;1291;21990;-69
2023/01/16 13:51:29;;;;;;;35.20;21.70;;;;;;;12.81;73.96;100170.08;107817;1291;23650;-66
2023/01/16 13:54:01;;;;;;;46.80;28.80;;;;;;;12.76;73.18;100172.48;107735;1291;22007;-69
2023/01/16 13:56:30;;;;;;;45.20;26.70;;;;;;;12.79;73.79;100172.93;107881;1292;22104;-68
2023/01/16 13:59:08;;;;;;;28.00;16.90;;;;;;;12.81;73.82;100163.88;107817;1292;21999;-67
2023/01/16 14:01:39;;;;;;;14.50;7.90;;;;;;;12.78;73.18;100161.85;107845;1292;21994;-66
2023/01/16 14:04:14;;;;;;;12.80;7.50;;;;;;;12.72;72.31;100157.96;107814;1292;21997;-69
2023/01/16 14:06:45;;;;;;;11.90;7.50;;;;;;;12.78;72.79;100151.84;107846;1291;22456;-67
2023/01/16 14:09:16;;;;;;;11.80;6.90;;;;;;;12.77;72.45;100153.23;107990;1286;24366;-67
2023/01/16 14:11:58;;;;;;;13.00;7.80;;;;;;;12.82;72.82;100151.90;107838;1291;21995;-66
2023/01/16 14:17:49;;;;;;;18.80;9.30;;;;;;;12.80;72.13;100163.41;107764;1291;23079;-67
2023/01/16 14:20:43;;;;;;;28.80;13.60;;;;;;;12.82;72.35;100162.98;107838;1290;21993;-68
2023/01/16 14:26:04;;;;;;;30.80;14.70;;;;;;;12.80;72.21;100157.06;107950;1289;23754;-66
2023/01/16 14:28:31;;;;;;;30.90;14.70;;;;;;;12.79;71.91;100156.89;107905;1290;22001;-68
2023/01/16 14:30:58;;;;;;;24.90;12.50;;;;;;;12.77;71.59;100153.61;107852;1290;21962;-67
2023/01/16 14:33:25;;;;;;;20.00;11.00;;;;;;;12.72;71.38;100150.90;107810;1291;22031;-67
2023/01/16 14:35:55;;;;;;;16.50;11.20;;;;;;;12.75;71.72;100148.91;107919;1290;23650;-67
2023/01/16 14:38:22;;;;;;;23.40;11.70;;;;;;;12.85;71.64;100148.48;107759;1286;23865;-66
2023/01/16 14:55:41;;;;;;;19.80;14.10;;;;;;;12.86;70.67;100136.65;107885;1290;21995;-65
2023/01/16 14:58:10;;;;;;;11.60;7.40;;;;;;;12.77;70.75;100134.94;107815;1291;23298;-66
2023/01/16 15:00:37;;;;;;;9.80;5.70;;;;;;;12.74;71.03;100135.89;107790;1290;23727;-65
2023/01/16 15:03:12;;;;;;;9.20;5.10;;;;;;;12.70;70.36;100133.36;107874;1290;23056;-69
2023/01/16 15:05:58;;;;;;;7.80;4.80;;;;;;;12.66;70.57;100134.70;108022;1289;21987;-72
2023/01/16 15:08:31;;;;;;;15.20;6.40;;;;;;;12.63;70.47;100138.81;108371;1290;22755;-71
2023/01/16 15:11:30;;;;;;;11.70;6.70;;;;;;;12.62;70.13;100140.25;107908;1286;21995;-65
2023/01/16 15:22:04;;;;;;;8.80;5.70;;;;;;;12.63;70.30;100129.65;107695;1290;23612;-65
2023/01/16 15:24:30;;;;;;;12.30;7.20;;;;;;;12.62;70.21;100126.68;107917;1290;22000;-65
2023/01/16 15:27:15;;;;;;;17.50;8.80;;;;;;;12.58;69.85;100122.21;107952;1288;21994;-65
2023/01/16 15:29:53;;;;;;;19.10;11.10;;;;;;;12.63;70.07;100122.08;108043;1288;23063;-65
2023/01/16 15:32:21;;;;;;;14.90;7.30;;;;;;;12.58;69.85;100117.29;107922;1288;23629;-70
2023/01/16 15:35:03;;;;;;;10.60;6.10;;;;;;;12.60;70.00;100110.73;107819;1288;22460;-70
2023/01/16 15:37:32;;;;;;;10.10;5.70;;;;;;;12.59;69.64;100110.75;107949;1288;23766;-70
2023/01/16 15:39:58;;;;;;;12.50;5.90;;;;;;;12.66;69.95;100105.98;107994;1288;23611;-65
2023/01/16 15:48:21;;;;;;;9.20;4.80;;;;;;;12.81;69.68;100114.42;107963;1288;22265;-70
2023/01/16 15:50:52;;;;;;;12.40;5.50;;;;;;;12.77;69.51;100114.53;107908;1288;21990;-66
2023/01/16 15:53:18;;;;;;;10.60;4.90;;;;;;;12.73;69.61;100117.09;108091;1288;23711;-70
2023/01/16 15:55:50;;;;;;;9.20;5.20;;;;;;;12.69;69.44;100119.47;107919;1288;22039;-70
2023/01/16 15:58:23;;;;;;;10.90;5.70;;;;;;;12.73;69.63;100116.05;107775;1288;23056;-65
2023/01/16 16:01:00;;;;;;;8.90;4.60;;;;;;;12.75;69.57;100113.69;108007;1288;21987;-65
2023/01/16 22:00:39;;;;;;;23.00;15.40;;;;;;;8.98;100.00;99852.42;107395;1292;550713;-68
2023/01/16 22:03:08;;;;;;;18.80;12.60;;;;;;;12.17;99.16;99832.09;107735;1292;21962;-68
2023/01/16 22:05:35;;;;;;;17.50;11.30;;;;;;;12.54;94.13;99829.29;107548;1295;22050;-65
2023/01/16 22:08:01;;;;;;;19.70;10.60;;;;;;;12.78;90.97;99832.45;107499;1295;22831;-69
2023/01/16 22:10:27;;;;;;;17.80;10.10;;;;;;;13.02;89.22;99834.36;107481;1295;22126;-69
2023/01/16 22:18:25;;;;;;;19.20;9.70;;;;;;;13.25;85.64;99841.05;107725;1285;22131;-71
2023/01/16 22:20:56;;;;;;;19.40;10.20;;;;;;;13.28;84.91;99839.38;107709;1291;21992;-69
2023/01/16 22:23:23;;;;;;;19.20;9.70;;;;;;;13.30;84.16;99839.30;107687;1291;21993;-65
2023/01/16 22:25:51;;;;;;;17.70;9.80;;;;;;;13.31;83.80;99833.98;107785;1291;22000;-69
2023/01/16 22:28:18;;;;;;;16.90;8.80;;;;;;;13.37;83.80;99828.33;107702;1291;21997;-64
2023/01/16 22:30:46;;;;;;;14.80;8.60;;;;;;;13.38;83.22;99823.21;107659;1291;21998;-68
2023/01/16 22:33:11;;;;;;;17.10;8.30;;;;;;;13.40;82.86;99820.52;107667;1291;21994;-65
2023/01/16 22:35:37;;;;;;;17.40;8.60;;;;;;;13.34;83.74;99819.28;107676;1291;22002;-66
2023/01/16 22:38:04;;;;;;;16.00;8.20;;;;;;;13.31;83.93;99818.66;107740;1291;23128;-66
2023/01/16 22:40:29;;;;;;;12.10;7.90;;;;;;;13.31;83.69;99816.02;107700;1291;22032;-64
2023/01/16 22:46:20;;;;;;;16.50;8.10;;;;;;;13.31;83.71;99813.19;107666;1291;23729;-65
2023/01/16 22:48:25;;;;;;;14.80;8.50;;;;;;;13.32;83.30;99813.86;107833;1290;21994;-69
2023/01/16 22:50:51;;;;;;;16.40;9.90;;;;;;;13.36;83.27;99812.31;107797;1290;22001;-65
2023/01/16 22:53:16;;;;;;;20.20;10.70;;;;;;;13.40;83.13;99814.50;107816;1290;21986;-69
2023/01/16 22:55:45;;;;;;;21.80;11.40;;;;;;;13.42;83.09;99814.81;107857;1290;21990;-69
2023/01/16 22:58:10;;;;;;;18.80;9.50;;;;;;;13.48;83.08;99813.39;107964;1290;21996;-64
2023/01/16 23:00:36;;;;;;;16.10;10.10;;;;;;;13.53;82.83;99809.16;107829;1290;21986;-65
2023/01/16 23:03:02;;;;;;;17.20;9.80;;;;;;;13.55;82.57;99803.09;107847;1290;21997;-65
2023/01/16 23:05:28;;;;;;;13.90;9.40;;;;;;;13.55;82.37;99805.40;107914;1290;21998;-69
2023/01/16 23:07:56;;;;;;;16.00;9.60;;;;;;;13.58;82.55;99803.55;107906;1290;22004;-65
2023/01/16 23:10:24;;;;;;;22.00;10.60;;;;;;;13.64;82.03;99804.54;107952;1290;22028;-70
2023/01/16 23:12:50;;;;;;;19.00;10.80;;;;;;;13.72;81.63;99800.94;107886;1290;21997;-69
2023/01/16 23:15:16;;;;;;;15.70;11.00;;;;;;;13.74;81.42;99792.74;108057;1288;24398;-70
2023/01/16 23:17:41;;;;;;;18.90;11.60;;;;;;;13.75;81.02;99789.36;108003;1288;21996;-70
2023/01/16 23:20:09;;;;;;;19.20;11.80;;;;;;;13.75;80.77;99784.79;108022;1288;22003;-66
2023/01/16 23:22:35;;;;;;;19.00;12.60;;;;;;;13.77;80.65;99777.48;108107;1288;22039;-68
2023/01/16 23:25:05;;;;;;;18.30;11.30;;;;;;;13.81;80.52;99771.35;108041;1288;21994;-70
2023/01/16 23:27:32;;;;;;;18.50;11.70;;;;;;;13.88;80.23;99770.77;108043;1288;21991;-64
2023/01/16 23:29:58;;;;;;;19.50;12.30;;;;;;;13.93;80.29;99760.71;108023;1288;23758;-66
2023/01/16 23:32:24;;;;;;;17.80;11.60;;;;;;;13.96;80.09;99756.38;108047;1288;23074;-68
2023/01/16 23:34:50;;;;;;;22.00;13.30;;;;;;;13.98;79.92;99750.13;108001;1288;22029;-64
2023/01/16 23:37:15;;;;;;;22.60;12.60;;;;;;;13.94;79.80;99748.31;108033;1288;23709;-65
2023/01/16 23:39:41;;;;;;;21.40;13.70;;;;;;;13.95;79.81;99747.58;107992;1288;23660;-65
2023/01/16 23:44:54;;;;;;;18.40;13.30;;;;;;;13.97;79.28;99729.70;107843;1288;22073;-65
2023/01/16 23:47:21;;;;;;;21.00;13.50;;;;;;;13.97;79.41;99723.69;107985;1288;24339;-65
2023/01/16 23:49:51;;;;;;;23.70;13.30;;;;;;;14.00;79.41;99719.56;107975;1288;23626;-65
2023/01/16 23:52:19;;;;;;;21.90;15.30;;;;;;;14.07;79.37;99721.92;107984;1288;21958;-70
2023/01/16 23:54:45;;;;;;;21.10;13.00;;;;;;;14.05;79.51;99724.13;108083;1288;22055;-65
2023/01/16 23:57:12;;;;;;;22.80;13.80;;;;;;;14.08;79.66;99723.29;108034;1288;21996;-68
2023/01/16 23:59:38;;;;;;;25.20;15.30;;;;;;;14.05;79.52;99714.23;108026;1288;23644;-68
